Terminal Aerodrome Forecast
Issued by NWS

Home | Current Version | Previous Version | Text Only | Print | Product List | Glossary On
Versions: 1 2 3 4 5 6 7 8 9 10 11 12 13 14 15 16 17
000
FTUS43 KGLD 232321
TAFMCK
TAF
KMCK 232321Z 2400/2424 08005KT P6SM SCT050
     FM240600 08005KT P6SM VCTS SCT003 SCT050CB BKN100
     FM240900 06005KT 5SM BR VCTS BKN003CB
     FM241100 08005KT 5SM BR OVC003
     FM241700 11008KT P6SM OVC012=

USA.gov is the U.S. government's official web portal to all federal, state and local government web resources and services.